Time;durP1;ratioP1;P1;durP2;ratioP2;P2;SDS_P1;SDS_P2;PMS_P1;PMS_P2;Temp;Humidity;BMP_temperature;BMP_pressure;BME280_temperature;BME280_humidity;BME280_pressure;Samples;Min_cycle;Max_cycle;Signal;HPM_P1;HPM_P2
2023/06/26 00:01:39;;;;;;;6.47;5.87;;;;;;;;;;5018226;28;20209;-80
2023/06/26 00:04:05;;;;;;;6.10;5.37;;;;;;;;;;5016874;28;20224;-80
2023/06/26 00:06:32;;;;;;;6.20;5.60;;;;;;;;;;5017908;28;20228;-80
2023/06/26 00:08:58;;;;;;;6.07;5.57;;;;;;;;;;5017508;28;20201;-80
2023/06/26 00:11:27;;;;;;;5.73;5.23;;;;;;;;;;5033986;28;20186;-80
2023/06/26 00:13:53;;;;;;;5.40;4.90;;;;;;;;;;5016100;28;20174;-80
2023/06/26 00:16:19;;;;;;;5.57;5.07;;;;;;;;;;5019024;28;20738;-80
2023/06/26 00:18:48;;;;;;;5.40;5.00;;;;;;;;;;5024144;28;20657;-80
2023/06/26 00:21:14;;;;;;;6.10;5.50;;;;;;;;;;5033876;28;20729;-80
2023/06/26 00:23:40;;;;;;;6.03;5.47;;;;;;;;;;5051234;28;20760;-80
2023/06/26 00:26:06;;;;;;;5.40;4.90;;;;;;;;;;5051732;28;20246;-80
2023/06/26 00:28:33;;;;;;;5.77;5.07;;;;;;;;;;5033946;28;20181;-80
2023/06/26 00:30:59;;;;;;;5.10;4.70;;;;;;;;;;5018575;28;20818;-80
2023/06/26 00:33:25;;;;;;;5.57;5.07;;;;;;;;;;5035393;28;20259;-80
2023/06/26 00:35:51;;;;;;;6.23;5.73;;;;;;;;;;5034732;28;20233;-80
2023/06/26 00:38:17;;;;;;;5.57;5.07;;;;;;;;;;5034603;28;20690;-80
2023/06/26 00:40:43;;;;;;;6.57;5.10;;;;;;;;;;5017337;28;20261;-80
2023/06/26 00:43:10;;;;;;;5.37;4.90;;;;;;;;;;5033693;28;20174;-80
2023/06/26 00:45:36;;;;;;;5.70;5.20;;;;;;;;;;5016386;28;20236;-80
2023/06/26 00:48:03;;;;;;;5.57;5.07;;;;;;;;;;5017340;28;20617;-80
2023/06/26 00:50:30;;;;;;;5.77;4.97;;;;;;;;;;5017240;28;20650;-80
2023/06/26 00:53:00;;;;;;;5.63;5.03;;;;;;;;;;5018071;28;20251;-80
2023/06/26 00:55:27;;;;;;;5.33;4.93;;;;;;;;;;5014447;28;20717;-80
2023/06/26 00:57:53;;;;;;;5.20;4.70;;;;;;;;;;5003846;28;20182;-80
2023/06/26 01:00:19;;;;;;;5.80;5.30;;;;;;;;;;5051321;28;20185;-80
2023/06/26 01:02:50;;;;;;;5.97;5.43;;;;;;;;;;5016245;28;20561;-80
2023/06/26 01:05:20;;;;;;;6.17;5.57;;;;;;;;;;5044370;28;20222;-80
2023/06/26 01:07:49;;;;;;;5.97;5.47;;;;;;;;;;5017836;28;20583;-80
2023/06/26 01:10:15;;;;;;;5.87;5.37;;;;;;;;;;5017932;28;20537;-80
2023/06/26 01:12:41;;;;;;;5.97;5.43;;;;;;;;;;5034321;28;20228;-80
2023/06/26 01:15:08;;;;;;;5.40;4.90;;;;;;;;;;5050405;28;20194;-80
2023/06/26 01:17:35;;;;;;;5.50;5.00;;;;;;;;;;5032988;28;20198;-80
2023/06/26 01:20:06;;;;;;;5.40;4.90;;;;;;;;;;5032733;28;20186;-80
2023/06/26 01:22:52;;;;;;;5.13;4.73;;;;;;;;;;5047234;28;20205;-80
2023/06/26 01:25:21;;;;;;;5.40;4.80;;;;;;;;;;5028924;28;20205;-80
2023/06/26 01:27:48;;;;;;;5.20;4.70;;;;;;;;;;5016002;28;20660;-80
2023/06/26 01:30:17;;;;;;;5.10;4.60;;;;;;;;;;5017131;28;20174;-80
2023/06/26 01:32:44;;;;;;;5.83;4.93;;;;;;;;;;5016763;28;20685;-80
2023/06/26 01:35:10;;;;;;;5.50;5.00;;;;;;;;;;5047884;28;20209;-80
2023/06/26 01:37:36;;;;;;;5.40;4.90;;;;;;;;;;5050922;28;20182;-80
2023/06/26 01:40:05;;;;;;;5.37;4.87;;;;;;;;;;5050822;28;20672;-80
2023/06/26 01:42:32;;;;;;;5.37;4.87;;;;;;;;;;5000213;28;20258;-80
2023/06/26 01:44:59;;;;;;;5.47;4.97;;;;;;;;;;5015055;28;20252;-80
2023/06/26 01:47:27;;;;;;;5.03;4.63;;;;;;;;;;5015391;28;20190;-80
2023/06/26 01:49:57;;;;;;;5.67;4.73;;;;;;;;;;5013129;28;20213;-80
2023/06/26 01:52:26;;;;;;;4.80;4.40;;;;;;;;;;5050960;28;20213;-80
2023/06/26 01:55:01;;;;;;;5.33;4.83;;;;;;;;;;5031722;28;20217;-80
2023/06/26 01:57:28;;;;;;;7.67;5.20;;;;;;;;;;5032969;28;20177;-80
2023/06/26 01:59:55;;;;;;;5.83;5.17;;;;;;;;;;5016254;28;20224;-80
2023/06/26 02:02:24;;;;;;;7.67;5.27;;;;;;;;;;5016544;28;20189;-80
2023/06/26 02:04:50;;;;;;;6.30;5.70;;;;;;;;;;5013325;28;20255;-80
2023/06/26 02:07:16;;;;;;;6.53;5.93;;;;;;;;;;5025607;28;20185;-80
2023/06/26 02:09:43;;;;;;;6.53;5.70;;;;;;;;;;5004003;28;20227;-80
2023/06/26 02:12:10;;;;;;;6.27;5.67;;;;;;;;;;5038089;28;20227;-80
2023/06/26 02:14:36;;;;;;;5.50;5.00;;;;;;;;;;5021075;28;20570;-80
2023/06/26 02:17:03;;;;;;;10.03;5.17;;;;;;;;;;5021648;28;20233;-80
2023/06/26 02:19:30;;;;;;;6.60;6.00;;;;;;;;;;5037765;28;20262;-80
2023/06/26 02:21:57;;;;;;;8.27;5.83;;;;;;;;;;5039075;28;20186;-80
2023/06/26 02:24:24;;;;;;;6.30;5.70;;;;;;;;;;5021298;28;20233;-80
2023/06/26 02:26:50;;;;;;;6.40;5.80;;;;;;;;;;5038140;28;20185;-80
2023/06/26 02:29:16;;;;;;;7.13;6.10;;;;;;;;;;5021660;28;20189;-80
2023/06/26 02:31:42;;;;;;;7.13;5.83;;;;;;;;;;5022441;28;20189;-80
2023/06/26 02:34:09;;;;;;;5.80;5.30;;;;;;;;;;5021740;28;20206;-80
2023/06/26 02:36:35;;;;;;;6.40;5.80;;;;;;;;;;5021684;28;20208;-80
2023/06/26 02:39:05;;;;;;;6.07;5.40;;;;;;;;;;5038872;28;20220;-80
2023/06/26 02:41:31;;;;;;;6.47;5.57;;;;;;;;;;5038142;28;20755;-80
2023/06/26 02:43:58;;;;;;;6.30;5.70;;;;;;;;;;5019587;28;20212;-80
2023/06/26 02:46:25;;;;;;;5.70;5.20;;;;;;;;;;5036477;28;20182;-79
2023/06/26 02:48:52;;;;;;;6.00;5.40;;;;;;;;;;5037865;28;20190;-80
2023/06/26 02:51:18;;;;;;;6.20;5.40;;;;;;;;;;5037352;28;20190;-80
2023/06/26 02:53:45;;;;;;;6.30;5.70;;;;;;;;;;5035772;28;20214;-80
2023/06/26 02:56:11;;;;;;;6.97;5.60;;;;;;;;;;5020909;28;20265;-80
2023/06/26 02:58:37;;;;;;;6.27;5.57;;;;;;;;;;5004659;28;20189;-80
2023/06/26 03:01:04;;;;;;;6.10;5.40;;;;;;;;;;5020969;28;20689;-80
2023/06/26 03:03:30;;;;;;;6.60;6.00;;;;;;;;;;5004486;28;20220;-80
2023/06/26 03:05:57;;;;;;;7.50;6.10;;;;;;;;;;5020836;28;20244;-80
2023/06/26 03:08:23;;;;;;;5.80;5.30;;;;;;;;;;5020885;28;20537;-80
2023/06/26 03:10:49;;;;;;;6.67;6.00;;;;;;;;;;5037161;28;20182;-80
2023/06/26 03:13:15;;;;;;;5.70;5.20;;;;;;;;;;5037001;28;20178;-80
2023/06/26 03:15:42;;;;;;;7.97;5.40;;;;;;;;;;5019867;28;20202;-80
2023/06/26 03:18:09;;;;;;;5.87;5.17;;;;;;;;;;5036909;28;20251;-80
2023/06/26 03:20:35;;;;;;;5.50;5.00;;;;;;;;;;5019906;28;20186;-80
2023/06/26 03:23:01;;;;;;;5.87;5.37;;;;;;;;;;5003823;28;20190;-80
2023/06/26 03:25:28;;;;;;;6.13;5.53;;;;;;;;;;5018641;28;20209;-80
2023/06/26 03:28:04;;;;;;;5.73;5.13;;;;;;;;;;5019692;28;20174;-80
2023/06/26 03:30:31;;;;;;;6.53;5.63;;;;;;;;;;5035671;28;20167;-80
2023/06/26 03:32:58;;;;;;;6.43;5.67;;;;;;;;;;5019194;28;20209;-80
2023/06/26 03:35:24;;;;;;;7.83;5.70;;;;;;;;;;5019118;28;20676;-80
2023/06/26 03:37:50;;;;;;;6.30;5.47;;;;;;;;;;5053877;28;20178;-80
2023/06/26 03:40:17;;;;;;;6.03;5.40;;;;;;;;;;5020396;28;20197;-80
2023/06/26 03:42:44;;;;;;;6.10;5.50;;;;;;;;;;5020267;28;20182;-80
2023/06/26 03:45:10;;;;;;;6.07;5.50;;;;;;;;;;5035424;28;20308;-80
2023/06/26 03:47:37;;;;;;;5.87;5.37;;;;;;;;;;5003496;28;20243;-79
2023/06/26 03:50:03;;;;;;;5.63;5.13;;;;;;;;;;5036205;28;20205;-80
2023/06/26 03:52:30;;;;;;;6.40;5.80;;;;;;;;;;5019483;28;20190;-80
2023/06/26 03:55:00;;;;;;;6.63;5.90;;;;;;;;;;5035317;28;20567;-80
2023/06/26 03:57:26;;;;;;;6.50;5.80;;;;;;;;;;5035660;28;20178;-80
2023/06/26 03:59:53;;;;;;;6.57;5.80;;;;;;;;;;5019246;28;20239;-80
2023/06/26 04:02:21;;;;;;;6.50;5.20;;;;;;;;;;5017567;28;20243;-80
2023/06/26 04:04:47;;;;;;;6.20;5.60;;;;;;;;;;5051464;28;20263;-79
2023/06/26 04:07:13;;;;;;;5.77;5.27;;;;;;;;;;5017794;28;20178;-80
2023/06/26 04:09:40;;;;;;;5.70;5.20;;;;;;;;;;5017637;28;20177;-80
2023/06/26 04:12:07;;;;;;;6.50;5.90;;;;;;;;;;5004724;28;20174;-80
2023/06/26 04:14:33;;;;;;;6.47;5.63;;;;;;;;;;5033432;28;20204;-80
2023/06/26 04:17:02;;;;;;;7.93;6.03;;;;;;;;;;5051749;28;20207;-80
2023/06/26 04:19:29;;;;;;;7.33;5.53;;;;;;;;;;5034473;28;20248;-80
2023/06/26 04:21:55;;;;;;;6.33;5.70;;;;;;;;;;5033389;28;20178;-80
2023/06/26 04:24:21;;;;;;;7.10;5.90;;;;;;;;;;5017232;28;20628;-80
2023/06/26 04:26:47;;;;;;;7.07;5.73;;;;;;;;;;5034573;28;20551;-80
2023/06/26 04:29:13;;;;;;;7.00;6.33;;;;;;;;;;5033978;28;20178;-80
2023/06/26 04:31:39;;;;;;;6.17;5.60;;;;;;;;;;5034713;28;20209;-80
2023/06/26 04:34:06;;;;;;;8.10;5.67;;;;;;;;;;5017625;28;20372;-80
2023/06/26 04:36:33;;;;;;;6.60;5.90;;;;;;;;;;5033562;28;20204;-79
2023/06/26 04:38:59;;;;;;;6.83;6.23;;;;;;;;;;5033531;28;20239;-80
2023/06/26 04:41:26;;;;;;;6.80;6.03;;;;;;;;;;5017663;28;20189;-79
2023/06/26 04:43:52;;;;;;;7.27;6.57;;;;;;;;;;5033664;28;20204;-80
2023/06/26 04:46:19;;;;;;;7.10;6.40;;;;;;;;;;5035195;28;20174;-80
2023/06/26 04:48:45;;;;;;;7.97;6.63;;;;;;;;;;5018398;28;20182;-80
2023/06/26 04:51:11;;;;;;;7.90;6.50;;;;;;;;;;5034716;28;20621;-80
2023/06/26 04:53:37;;;;;;;7.23;6.47;;;;;;;;;;5051677;28;20185;-80
2023/06/26 04:56:04;;;;;;;6.87;6.27;;;;;;;;;;5058473;28;20288;-80
2023/06/26 04:58:30;;;;;;;9.07;6.87;;;;;;;;;;5040249;28;20247;-80
2023/06/26 05:00:56;;;;;;;8.37;6.87;;;;;;;;;;5035210;28;20185;-80
2023/06/26 05:03:23;;;;;;;6.73;6.13;;;;;;;;;;5035228;28;20653;-80
2023/06/26 05:05:50;;;;;;;9.00;5.97;;;;;;;;;;5001451;28;20217;-80
2023/06/26 05:08:17;;;;;;;8.00;6.47;;;;;;;;;;5034930;28;20272;-73
2023/06/26 05:10:43;;;;;;;6.90;6.30;;;;;;;;;;5051442;28;20217;-73
2023/06/26 05:13:10;;;;;;;7.87;6.47;;;;;;;;;;5033681;28;20240;-73
2023/06/26 05:15:36;;;;;;;6.50;5.90;;;;;;;;;;5051080;28;20198;-74
2023/06/26 05:18:02;;;;;;;7.70;6.50;;;;;;;;;;5046883;28;20300;-75
2023/06/26 05:20:28;;;;;;;7.87;6.00;;;;;;;;;;5051477;28;20173;-73
2023/06/26 05:22:55;;;;;;;7.33;6.37;;;;;;;;;;5051297;28;20174;-73
2023/06/26 05:25:21;;;;;;;9.50;6.00;;;;;;;;;;5046071;28;20535;-78
2023/06/26 05:27:47;;;;;;;7.43;6.63;;;;;;;;;;5033828;28;20184;-75
2023/06/26 05:30:14;;;;;;;7.57;6.37;;;;;;;;;;5033704;28;20185;-74
2023/06/26 05:32:40;;;;;;;8.27;7.00;;;;;;;;;;5051578;28;20692;-74
2023/06/26 05:35:07;;;;;;;7.40;6.70;;;;;;;;;;5050935;28;20203;-74
2023/06/26 05:37:34;;;;;;;7.40;6.70;;;;;;;;;;5015791;28;20216;-74
2023/06/26 05:40:01;;;;;;;6.77;6.17;;;;;;;;;;5051124;28;20186;-74
2023/06/26 05:42:30;;;;;;;6.90;6.30;;;;;;;;;;5050919;28;20633;-74
2023/06/26 05:44:56;;;;;;;9.33;7.37;;;;;;;;;;5048856;28;20284;-74
2023/06/26 05:47:22;;;;;;;9.97;7.17;;;;;;;;;;5050856;28;20225;-74
2023/06/26 05:49:48;;;;;;;8.10;7.27;;;;;;;;;;5051002;28;20181;-74
2023/06/26 05:52:15;;;;;;;7.90;7.10;;;;;;;;;;5039945;28;20178;-74
2023/06/26 05:54:41;;;;;;;7.77;6.90;;;;;;;;;;5043792;28;20581;-74
2023/06/26 05:57:07;;;;;;;8.37;7.57;;;;;;;;;;5048804;28;20184;-74
2023/06/26 05:59:33;;;;;;;8.07;6.77;;;;;;;;;;5050621;28;20182;-74
2023/06/26 06:02:00;;;;;;;9.30;7.20;;;;;;;;;;5050709;28;20247;-75
2023/06/26 06:04:26;;;;;;;8.53;7.20;;;;;;;;;;5049799;28;20233;-74
2023/06/26 06:06:52;;;;;;;8.37;7.57;;;;;;;;;;5050340;28;20174;-74
2023/06/26 06:09:18;;;;;;;8.17;7.30;;;;;;;;;;5050563;28;20177;-74
2023/06/26 06:11:45;;;;;;;11.20;8.20;;;;;;;;;;5050233;28;20235;-74
2023/06/26 06:14:11;;;;;;;8.33;7.53;;;;;;;;;;5050377;28;20664;-74
2023/06/26 06:16:37;;;;;;;9.03;7.60;;;;;;;;;;5050837;28;20189;-74
2023/06/26 06:19:04;;;;;;;8.53;7.30;;;;;;;;;;5046736;28;20182;-74
2023/06/26 06:21:30;;;;;;;8.03;7.23;;;;;;;;;;5009519;28;20272;-74
2023/06/26 06:23:56;;;;;;;8.67;7.53;;;;;;;;;;5049507;28;20205;-74
2023/06/26 06:26:22;;;;;;;9.13;7.40;;;;;;;;;;5021185;28;20247;-74
2023/06/26 06:28:48;;;;;;;8.50;7.70;;;;;;;;;;5025706;28;20648;-75
2023/06/26 06:31:14;;;;;;;8.37;7.47;;;;;;;;;;5046254;28;20196;-73
2023/06/26 06:33:40;;;;;;;8.60;7.70;;;;;;;;;;5044980;28;20190;-73
2023/06/26 06:36:07;;;;;;;8.43;7.53;;;;;;;;;;5032074;28;20237;-73
2023/06/26 06:38:33;;;;;;;8.33;7.50;;;;;;;;;;5050736;28;20640;-73
2023/06/26 06:40:59;;;;;;;8.37;7.37;;;;;;;;;;5016604;28;20280;-76
2023/06/26 06:43:25;;;;;;;9.60;8.00;;;;;;;;;;5046253;28;20231;-73
2023/06/26 06:45:51;;;;;;;8.13;7.33;;;;;;;;;;5047991;28;20201;-73
2023/06/26 06:48:18;;;;;;;8.10;7.40;;;;;;;;;;5050914;28;20166;-73
2023/06/26 06:50:44;;;;;;;8.37;7.57;;;;;;;;;;5049981;28;20275;-74
2023/06/26 06:53:10;;;;;;;7.93;7.13;;;;;;;;;;5049574;28;20207;-74
2023/06/26 06:55:36;;;;;;;8.50;7.70;;;;;;;;;;5050010;28;20218;-74
2023/06/26 06:58:02;;;;;;;8.43;7.53;;;;;;;;;;5034468;28;20186;-74
2023/06/26 07:00:28;;;;;;;8.00;7.20;;;;;;;;;;5054056;28;20182;-73
2023/06/26 07:02:56;;;;;;;7.87;7.10;;;;;;;;;;5036733;28;20190;-74
2023/06/26 07:05:22;;;;;;;8.23;7.27;;;;;;;;;;5053357;28;20747;-74
2023/06/26 07:07:48;;;;;;;8.10;7.30;;;;;;;;;;5050045;28;20189;-74
2023/06/26 07:10:14;;;;;;;7.80;7.10;;;;;;;;;;5054071;28;20330;-74
2023/06/26 07:12:41;;;;;;;7.53;6.83;;;;;;;;;;5044576;28;20693;-74
2023/06/26 07:15:07;;;;;;;8.53;7.73;;;;;;;;;;5053462;28;20623;-74
2023/06/26 07:17:34;;;;;;;8.13;7.23;;;;;;;;;;5052226;28;20232;-74
2023/06/26 07:20:01;;;;;;;7.70;7.00;;;;;;;;;;5027058;28;20217;-74
2023/06/26 07:22:27;;;;;;;8.13;7.33;;;;;;;;;;5032936;28;20264;-73
2023/06/26 07:24:53;;;;;;;8.63;7.77;;;;;;;;;;5034709;28;20803;-74
2023/06/26 07:27:20;;;;;;;8.57;7.37;;;;;;;;;;5043599;28;20266;-73
2023/06/26 07:29:47;;;;;;;8.40;7.60;;;;;;;;;;5053696;28;20598;-73
2023/06/26 07:32:13;;;;;;;7.83;7.13;;;;;;;;;;5035947;28;20232;-73
2023/06/26 07:34:39;;;;;;;8.03;7.23;;;;;;;;;;5035191;28;20288;-73
2023/06/26 07:37:05;;;;;;;8.30;7.50;;;;;;;;;;5052226;28;20213;-73
2023/06/26 07:39:31;;;;;;;9.33;7.73;;;;;;;;;;5035614;28;20643;-73
2023/06/26 07:42:00;;;;;;;7.67;6.87;;;;;;;;;;5034200;28;20220;-74
2023/06/26 07:44:26;;;;;;;9.10;6.90;;;;;;;;;;5047910;28;20247;-73
2023/06/26 07:46:53;;;;;;;8.43;7.53;;;;;;;;;;5053298;28;20178;-74
2023/06/26 07:49:19;;;;;;;7.83;7.07;;;;;;;;;;5053353;28;20582;-73
2023/06/26 07:51:45;;;;;;;7.97;7.13;;;;;;;;;;5042510;28;20492;-74
2023/06/26 07:54:11;;;;;;;8.20;7.40;;;;;;;;;;5037704;28;20680;-74
2023/06/26 07:56:58;;;;;;;19.93;7.70;;;;;;;;;;5051335;28;20196;-74
2023/06/26 07:59:24;;;;;;;9.67;7.20;;;;;;;;;;5045722;28;20197;-74
2023/06/26 08:01:51;;;;;;;9.00;7.43;;;;;;;;;;5051669;28;20180;-74
2023/06/26 08:04:21;;;;;;;8.50;7.63;;;;;;;;;;5049964;28;20221;-74
2023/06/26 08:06:50;;;;;;;8.07;7.27;;;;;;;;;;5052600;28;20236;-73
2023/06/26 08:09:17;;;;;;;8.00;7.30;;;;;;;;;;5052678;28;20276;-74
2023/06/26 08:11:44;;;;;;;9.03;7.30;;;;;;;;;;5052690;28;20185;-74
2023/06/26 08:14:11;;;;;;;7.97;7.17;;;;;;;;;;5052214;28;20233;-74
2023/06/26 08:16:38;;;;;;;8.07;7.27;;;;;;;;;;5048822;28;20666;-74
2023/06/26 08:19:04;;;;;;;8.07;7.27;;;;;;;;;;5050234;28;20192;-74
2023/06/26 08:21:30;;;;;;;8.30;6.60;;;;;;;;;;5052636;28;20184;-74
2023/06/26 08:23:57;;;;;;;8.73;7.57;;;;;;;;;;5050661;28;20193;-74
2023/06/26 08:26:23;;;;;;;8.43;7.63;;;;;;;;;;5050701;28;20715;-74
2023/06/26 08:28:49;;;;;;;8.50;7.70;;;;;;;;;;5050588;28;20180;-74
2023/06/26 08:31:15;;;;;;;8.03;7.23;;;;;;;;;;5052221;28;20197;-74
2023/06/26 08:33:41;;;;;;;8.60;7.80;;;;;;;;;;5034480;28;20182;-74
2023/06/26 08:36:07;;;;;;;7.77;7.07;;;;;;;;;;5051234;28;20182;-74
2023/06/26 08:38:33;;;;;;;8.23;7.53;;;;;;;;;;5052391;28;20268;-73
2023/06/26 08:41:00;;;;;;;8.10;7.30;;;;;;;;;;5051783;28;20276;-74
2023/06/26 08:43:28;;;;;;;7.77;7.07;;;;;;;;;;5050877;28;20590;-73
2023/06/26 08:45:54;;;;;;;7.67;6.87;;;;;;;;;;5021825;28;20221;-74
2023/06/26 08:48:21;;;;;;;7.57;6.87;;;;;;;;;;5043634;28;20188;-74
2023/06/26 08:50:52;;;;;;;7.80;7.10;;;;;;;;;;5000968;28;20188;-74
2023/06/26 08:53:23;;;;;;;7.40;6.80;;;;;;;;;;5049667;28;21026;-76
2023/06/26 08:55:53;;;;;;;7.30;6.60;;;;;;;;;;5051144;28;20214;-75
2023/06/26 08:58:19;;;;;;;8.03;7.23;;;;;;;;;;5052230;28;20209;-75
2023/06/26 09:00:45;;;;;;;8.00;7.20;;;;;;;;;;5051618;28;20243;-74
2023/06/26 09:03:13;;;;;;;8.53;7.63;;;;;;;;;;5052386;28;20179;-72
2023/06/26 09:05:40;;;;;;;7.93;7.23;;;;;;;;;;5043085;28;20218;-73
2023/06/26 09:08:07;;;;;;;7.30;6.60;;;;;;;;;;5028890;28;20201;-73
2023/06/26 09:10:34;;;;;;;7.27;6.57;;;;;;;;;;5050367;28;20627;-73
2023/06/26 09:13:01;;;;;;;7.70;7.10;;;;;;;;;;5043152;28;20182;-73
2023/06/26 09:15:31;;;;;;;7.67;6.97;;;;;;;;;;5050592;28;20205;-73
2023/06/26 09:17:58;;;;;;;8.37;6.43;;;;;;;;;;5051127;28;20184;-73
2023/06/26 09:20:28;;;;;;;8.50;7.03;;;;;;;;;;5051325;28;20191;-73
2023/06/26 09:22:55;;;;;;;6.90;6.30;;;;;;;;;;5039586;28;20190;-73
2023/06/26 09:25:23;;;;;;;7.17;6.17;;;;;;;;;;5027116;28;20214;-73
2023/06/26 09:27:49;;;;;;;7.83;6.97;;;;;;;;;;5051155;28;20232;-74
2023/06/26 09:30:18;;;;;;;7.10;6.50;;;;;;;;;;5051180;28;20221;-73
2023/06/26 09:32:44;;;;;;;8.73;6.20;;;;;;;;;;5033770;28;20210;-74
2023/06/26 09:35:11;;;;;;;7.00;6.37;;;;;;;;;;5050567;28;20197;-73
2023/06/26 09:37:38;;;;;;;7.37;6.67;;;;;;;;;;5049856;28;20181;-73
2023/06/26 09:40:05;;;;;;;7.77;6.40;;;;;;;;;;5049717;28;20182;-73
2023/06/26 09:42:31;;;;;;;7.20;6.50;;;;;;;;;;5051127;28;20219;-73
2023/06/26 09:44:57;;;;;;;6.27;5.77;;;;;;;;;;5049883;28;20259;-73
2023/06/26 09:47:24;;;;;;;8.77;6.37;;;;;;;;;;5050946;28;20178;-73
2023/06/26 09:49:52;;;;;;;7.23;6.53;;;;;;;;;;5050900;28;20649;-74
2023/06/26 09:52:21;;;;;;;7.03;6.03;;;;;;;;;;5051083;28;20259;-74
2023/06/26 09:54:48;;;;;;;7.10;5.83;;;;;;;;;;5048950;28;20226;-75
2023/06/26 09:57:15;;;;;;;7.30;6.40;;;;;;;;;;5037064;28;20733;-73
2023/06/26 09:59:42;;;;;;;6.80;6.20;;;;;;;;;;5050688;28;20178;-74
2023/06/26 10:02:09;;;;;;;7.60;5.80;;;;;;;;;;5051043;28;20699;-76
2023/06/26 10:04:36;;;;;;;7.00;6.40;;;;;;;;;;5050902;28;20244;-74
2023/06/26 10:07:04;;;;;;;6.73;6.13;;;;;;;;;;5050921;28;20273;-73
2023/06/26 10:09:31;;;;;;;6.90;6.30;;;;;;;;;;5051245;28;20222;-76
2023/06/26 10:12:05;;;;;;;6.70;6.10;;;;;;;;;;5048776;28;20189;-73
2023/06/26 10:14:35;;;;;;;6.40;5.87;;;;;;;;;;5000684;28;20302;-78
2023/06/26 10:17:03;;;;;;;8.63;5.90;;;;;;;;;;5051990;28;20178;-73
2023/06/26 10:19:30;;;;;;;6.63;5.93;;;;;;;;;;5034185;28;20186;-73
2023/06/26 10:21:57;;;;;;;7.50;6.50;;;;;;;;;;5050778;28;20260;-74
2023/06/26 10:24:24;;;;;;;6.90;6.10;;;;;;;;;;5050128;28;20736;-72
2023/06/26 10:26:52;;;;;;;6.37;5.87;;;;;;;;;;5050751;28;20182;-73
2023/06/26 10:29:20;;;;;;;6.23;5.73;;;;;;;;;;5051036;28;20347;-75
2023/06/26 10:31:50;;;;;;;8.73;6.60;;;;;;;;;;5050679;28;20179;-75
2023/06/26 10:34:17;;;;;;;6.97;6.37;;;;;;;;;;5051338;28;20213;-77
2023/06/26 10:36:43;;;;;;;7.27;6.10;;;;;;;;;;5052183;28;20243;-73
2023/06/26 10:39:09;;;;;;;7.03;6.13;;;;;;;;;;5053868;28;20209;-74
2023/06/26 10:41:39;;;;;;;6.83;6.20;;;;;;;;;;5054528;28;20177;-73
2023/06/26 10:44:32;;;;;;;6.67;6.07;;;;;;;;;;5053416;28;20952;-74
2023/06/26 10:46:58;;;;;;;7.17;6.47;;;;;;;;;;5039383;28;20190;-74
2023/06/26 10:49:30;;;;;;;6.40;5.80;;;;;;;;;;5052232;28;20196;-74
2023/06/26 10:52:01;;;;;;;7.53;6.47;;;;;;;;;;5046878;28;20174;-74
2023/06/26 10:54:29;;;;;;;8.67;6.53;;;;;;;;;;5026676;28;20223;-74
2023/06/26 10:56:58;;;;;;;6.33;5.83;;;;;;;;;;5045834;28;20190;-75
2023/06/26 10:59:26;;;;;;;6.30;5.70;;;;;;;;;;5036456;28;20737;-74
2023/06/26 11:01:59;;;;;;;6.50;5.80;;;;;;;;;;5053494;28;20174;-75
2023/06/26 11:04:46;;;;;;;6.30;5.40;;;;;;;;;;5039577;28;20598;-75
2023/06/26 11:07:25;;;;;;;6.97;5.47;;;;;;;;;;5041665;28;20176;-75
2023/06/26 11:09:55;;;;;;;6.50;5.63;;;;;;;;;;5053816;28;20265;-75
2023/06/26 11:12:43;;;;;;;6.20;5.57;;;;;;;;;;5040390;28;20213;-75
2023/06/26 11:15:14;;;;;;;6.93;5.20;;;;;;;;;;5047118;28;20205;-75
2023/06/26 11:17:41;;;;;;;6.03;5.53;;;;;;;;;;5052120;28;20189;-75
2023/06/26 11:20:08;;;;;;;6.53;5.93;;;;;;;;;;5053832;28;20186;-75
2023/06/26 11:22:38;;;;;;;6.90;6.30;;;;;;;;;;5053521;28;20712;-75
2023/06/26 11:25:05;;;;;;;6.77;6.13;;;;;;;;;;5052757;28;20215;-75
2023/06/26 11:27:32;;;;;;;7.90;6.90;;;;;;;;;;5053685;28;20186;-75
2023/06/26 11:29:58;;;;;;;8.03;6.73;;;;;;;;;;5038935;28;20179;-75
2023/06/26 11:32:27;;;;;;;6.87;5.93;;;;;;;;;;5053273;28;20291;-75
2023/06/26 11:34:53;;;;;;;8.70;6.40;;;;;;;;;;5039813;28;20562;-75
2023/06/26 11:37:20;;;;;;;6.97;6.37;;;;;;;;;;5034441;28;20179;-75
2023/06/26 11:39:46;;;;;;;6.77;6.17;;;;;;;;;;5052937;28;20528;-76
2023/06/26 11:42:12;;;;;;;8.40;6.23;;;;;;;;;;5053207;28;20554;-75
2023/06/26 11:44:42;;;;;;;7.20;6.50;;;;;;;;;;5052707;28;20206;-75
2023/06/26 11:47:12;;;;;;;8.47;6.13;;;;;;;;;;5040682;28;20611;-76
2023/06/26 11:49:38;;;;;;;7.50;6.80;;;;;;;;;;5053425;28;20174;-75
2023/06/26 11:52:04;;;;;;;7.33;6.60;;;;;;;;;;5035482;28;20211;-75
2023/06/26 11:54:31;;;;;;;7.80;7.10;;;;;;;;;;5053046;28;20218;-75
2023/06/26 11:56:58;;;;;;;7.30;6.70;;;;;;;;;;5052957;28;20236;-75
2023/06/26 11:59:25;;;;;;;7.63;6.97;;;;;;;;;;5051055;28;20283;-75
2023/06/26 12:01:52;;;;;;;7.63;6.93;;;;;;;;;;5047620;28;20222;-76
2023/06/26 12:04:19;;;;;;;8.00;7.20;;;;;;;;;;5052575;28;20299;-76
2023/06/26 12:06:50;;;;;;;6.80;6.20;;;;;;;;;;5052403;28;20189;-76
2023/06/26 12:09:18;;;;;;;9.77;6.33;;;;;;;;;;5047687;28;20178;-76
2023/06/26 12:11:44;;;;;;;6.77;6.10;;;;;;;;;;5046952;28;20178;-76
2023/06/26 12:14:11;;;;;;;6.83;6.23;;;;;;;;;;5049872;28;20230;-76
2023/06/26 12:16:39;;;;;;;6.27;5.67;;;;;;;;;;5049487;28;20182;-76
2023/06/26 12:19:06;;;;;;;12.07;5.87;;;;;;;;;;5052218;28;20654;-75
2023/06/26 12:21:40;;;;;;;6.40;5.07;;;;;;;;;;5032678;28;20725;-73
2023/06/26 12:24:07;;;;;;;7.20;5.00;;;;;;;;;;5033564;28;20273;-73
2023/06/26 12:26:36;;;;;;;6.87;5.17;;;;;;;;;;5049806;28;20188;-73
2023/06/26 12:29:06;;;;;;;6.27;4.93;;;;;;;;;;5049894;28;20184;-73
2023/06/26 12:31:33;;;;;;;5.87;5.13;;;;;;;;;;5052585;28;20246;-73
2023/06/26 12:33:59;;;;;;;5.67;4.87;;;;;;;;;;5051399;28;20179;-73
2023/06/26 12:36:25;;;;;;;6.27;5.33;;;;;;;;;;5051222;28;20239;-73
2023/06/26 12:38:53;;;;;;;5.43;4.90;;;;;;;;;;5051137;28;20188;-73
2023/06/26 12:41:20;;;;;;;4.87;4.47;;;;;;;;;;5050209;28;20186;-73
2023/06/26 12:43:46;;;;;;;5.57;5.07;;;;;;;;;;5033297;28;20249;-73
2023/06/26 12:46:13;;;;;;;5.77;5.27;;;;;;;;;;5040797;28;20206;-73
2023/06/26 12:48:45;;;;;;;7.77;4.93;;;;;;;;;;5049279;28;20194;-73
2023/06/26 12:51:12;;;;;;;6.40;4.70;;;;;;;;;;5046824;28;20211;-74
2023/06/26 12:53:41;;;;;;;6.37;4.90;;;;;;;;;;5044084;28;20211;-74
2023/06/26 12:56:08;;;;;;;5.37;4.60;;;;;;;;;;5050298;28;20259;-74
2023/06/26 12:58:38;;;;;;;6.37;4.80;;;;;;;;;;5029935;28;20188;-75
2023/06/26 13:01:04;;;;;;;7.07;4.83;;;;;;;;;;5030225;28;20188;-77
2023/06/26 13:03:31;;;;;;;8.77;5.37;;;;;;;;;;5051073;28;20178;-76
2023/06/26 13:05:57;;;;;;;6.40;5.23;;;;;;;;;;5047447;28;20204;-75
2023/06/26 13:08:23;;;;;;;6.30;5.43;;;;;;;;;;5050627;28;20706;-75
2023/06/26 13:10:50;;;;;;;5.70;5.20;;;;;;;;;;5051086;28;20181;-75
2023/06/26 13:13:16;;;;;;;7.07;6.37;;;;;;;;;;5051619;28;20253;-76
2023/06/26 13:15:42;;;;;;;7.27;6.20;;;;;;;;;;5049508;28;20213;-76
2023/06/26 13:18:08;;;;;;;7.20;6.27;;;;;;;;;;5042923;28;20186;-76
2023/06/26 13:20:34;;;;;;;7.73;7.03;;;;;;;;;;5050190;28;20190;-76
2023/06/26 13:23:00;;;;;;;9.80;7.60;;;;;;;;;;5034462;28;20558;-75
2023/06/26 13:25:26;;;;;;;9.07;8.17;;;;;;;;;;5051037;28;20227;-76
2023/06/26 13:27:53;;;;;;;11.53;9.30;;;;;;;;;;5051049;28;20183;-76
2023/06/26 13:30:19;;;;;;;11.37;10.33;;;;;;;;;;5050181;28;20180;-76
2023/06/26 13:32:45;;;;;;;10.73;9.83;;;;;;;;;;5016892;28;20855;-76
2023/06/26 13:35:13;;;;;;;9.93;8.90;;;;;;;;;;5048688;28;20202;-76
2023/06/26 13:37:39;;;;;;;9.20;8.40;;;;;;;;;;5017291;28;20237;-75
2023/06/26 13:40:06;;;;;;;8.53;7.73;;;;;;;;;;5051415;28;20204;-76
2023/06/26 13:42:33;;;;;;;9.33;8.43;;;;;;;;;;5050444;28;20177;-76
2023/06/26 13:44:59;;;;;;;8.80;7.90;;;;;;;;;;5050584;28;20208;-76
2023/06/26 13:47:25;;;;;;;8.50;7.07;;;;;;;;;;5051459;28;20218;-75
2023/06/26 13:49:51;;;;;;;7.13;6.53;;;;;;;;;;5050170;28;20209;-76
2023/06/26 13:52:17;;;;;;;7.03;6.43;;;;;;;;;;5044266;28;20188;-75
2023/06/26 13:54:44;;;;;;;6.57;5.97;;;;;;;;;;5049582;28;20706;-78
2023/06/26 13:57:10;;;;;;;6.07;5.57;;;;;;;;;;5044324;28;20215;-76
2023/06/26 13:59:37;;;;;;;6.43;5.03;;;;;;;;;;5040880;28;20644;-76
2023/06/26 14:02:05;;;;;;;5.67;5.10;;;;;;;;;;5048771;28;20186;-76
2023/06/26 14:04:31;;;;;;;6.30;4.53;;;;;;;;;;5041107;28;20619;-75
2023/06/26 14:06:57;;;;;;;9.43;4.30;;;;;;;;;;5053591;28;20663;-75
2023/06/26 14:09:23;;;;;;;5.67;4.00;;;;;;;;;;5052872;28;20270;-75
2023/06/26 14:11:49;;;;;;;6.03;3.73;;;;;;;;;;5060051;28;20212;-81
2023/06/26 14:14:15;;;;;;;8.23;4.00;;;;;;;;;;5023512;28;20203;-81
2023/06/26 14:16:42;;;;;;;8.77;3.17;;;;;;;;;;5058276;28;20277;-80
2023/06/26 14:19:15;;;;;;;8.97;3.23;;;;;;;;;;5041550;28;20185;-79
2023/06/26 14:21:42;;;;;;;5.27;3.47;;;;;;;;;;5067348;28;20280;-80
2023/06/26 14:24:08;;;;;;;15.87;4.10;;;;;;;;;;5054913;28;21839;-79
2023/06/26 14:26:34;;;;;;;5.40;3.40;;;;;;;;;;5022100;28;20190;-78
2023/06/26 14:29:01;;;;;;;5.90;3.47;;;;;;;;;;5021768;28;20192;-80
2023/06/26 14:31:27;;;;;;;9.20;3.53;;;;;;;;;;5045381;28;20290;-79
2023/06/26 14:33:53;;;;;;;6.30;3.50;;;;;;;;;;5050414;28;20539;-79
2023/06/26 14:36:19;;;;;;;9.00;3.50;;;;;;;;;;5018796;28;20211;-81
2023/06/26 14:38:45;;;;;;;7.10;2.90;;;;;;;;;;5039203;28;20266;-81
2023/06/26 14:41:12;;;;;;;4.57;2.87;;;;;;;;;;5038678;28;20222;-81
2023/06/26 14:43:41;;;;;;;3.10;2.80;;;;;;;;;;5004898;28;20270;-81